Hauptseite
METAR-TAF:

METAR-TAF

Flughäfen :

Downtown Manhattan Heliport

New York City, New York, Vereinigte Staaten

Breite: 40-42-04N, Länge: 074-00-32W, Höhe: 2 m

Beobachtung

Neuester Wetterbericht von vor 53 Minuten, um 00:56 UTC
Wind 12 kt aus West, Böen bis zu 18 kt
Temperatur 4°C
Luftfeuchtigkeit 56%
Luftdruck 1019 hPa
Aufgelockert bewölkt in der Höhe von 6000 ft

METAR: KJRB 160056Z AUTO 26012G18KT SCT060 04/M04 A3008 RMK AO2 SLP185 T00441044 PWINO

Zeit: 20:49 (01:49 UTC)


TAF: fehlend

Wetterbeobachtungen und Prognosen von mehr als 4000 Flughäfen (METAR und TAF Bericht).

Die verfügbaren Stationen werden durch gelbe und rote Markierungen auf der Karte dargestellt.

Führen Sie die Maus auf sie, um den Namen der Station zu sehen.

Darauf klicken, um die Beobachtung von Wetterbeobachtungen und Prognosen zu sehen.

Um die Karte zu ändern : klicken Sie auf den grünen Tasten mit einem schwarzen Kreuz Zum Vergrößern, auf den grünen Button mit einem Gedankenstrich zu verkleinern, oder auf die grünen Pfeile für benachbarte Karten.


METAR-TAF: